Time;durP1;ratioP1;P1;durP2;ratioP2;P2;SDS_P1;SDS_P2;PMS_P1;PMS_P2;Temp;Humidity;BMP_temperature;BMP_pressure;BME280_temperature;BME280_humidity;BME280_pressure;Samples;Min_cycle;Max_cycle;Signal;HPM_P1;HPM_P2
2023/12/21 00:03:32;;;;;;;20.10;11.90;;;;;;;7.02;100.00;100485.63;10507611;28;20078;-80
2023/12/21 00:08:33;;;;;;;18.38;12.32;;;;;;;7.09;100.00;100472.97;10511736;28;20479;-80
2023/12/21 00:13:34;;;;;;;14.77;10.90;;;;;;;7.12;100.00;100475.72;10489046;28;20040;-81
2023/12/21 00:18:34;;;;;;;19.73;13.88;;;;;;;7.08;100.00;100466.88;10507137;28;20127;-80
2023/12/21 00:23:35;;;;;;;19.67;12.20;;;;;;;7.06;100.00;100458.09;10498439;28;20066;-80
2023/12/21 00:28:36;;;;;;;19.52;12.25;;;;;;;7.08;100.00;100459.06;10498052;28;20041;-81
2023/12/21 00:33:37;;;;;;;19.07;12.40;;;;;;;7.09;100.00;100436.53;10463702;28;20507;-81
2023/12/21 00:38:37;;;;;;;19.98;12.82;;;;;;;7.05;100.00;100438.97;10505925;28;20127;-81
2023/12/21 00:43:38;;;;;;;23.00;14.27;;;;;;;7.04;100.00;100418.06;10481858;28;20118;-80
2023/12/21 00:48:38;;;;;;;32.22;13.98;;;;;;;7.05;100.00;100423.34;10489309;28;20127;-82
2023/12/21 00:53:39;;;;;;;18.25;12.80;;;;;;;7.02;100.00;100415.38;10495341;28;20130;-81
2023/12/21 00:58:39;;;;;;;20.63;14.40;;;;;;;7.04;100.00;100394.66;10506870;28;20036;-81
2023/12/21 01:03:40;;;;;;;21.33;13.75;;;;;;;7.01;100.00;100390.16;10503467;28;20445;-80
2023/12/21 01:08:40;;;;;;;23.13;13.10;;;;;;;7.02;100.00;100380.66;10497984;28;20032;-81
2023/12/21 01:13:41;;;;;;;17.55;11.65;;;;;;;7.02;100.00;100365.94;10483665;28;20115;-81
2023/12/21 01:18:41;;;;;;;20.42;12.27;;;;;;;7.02;100.00;100368.53;10501813;28;20123;-80
2023/12/21 01:23:42;;;;;;;20.75;13.98;;;;;;;7.01;100.00;100361.53;10473328;28;20032;-81
2023/12/21 01:28:42;;;;;;;17.63;12.73;;;;;;;7.02;100.00;100346.84;10497829;28;20067;-80
2023/12/21 01:33:43;;;;;;;16.77;12.45;;;;;;;7.00;100.00;100340.66;10483774;28;20127;-80
2023/12/21 01:38:43;;;;;;;19.13;13.65;;;;;;;7.01;100.00;100340.72;10505982;28;20036;-79
2023/12/21 01:43:44;;;;;;;24.60;13.73;;;;;;;7.00;100.00;100340.66;10486642;28;20089;-80
2023/12/21 01:48:45;;;;;;;24.17;11.43;;;;;;;6.98;100.00;100327.56;10496591;28;20059;-80
2023/12/21 01:53:46;;;;;;;18.30;11.50;;;;;;;6.98;100.00;100313.66;10497920;28;20510;-80
2023/12/21 01:58:48;;;;;;;21.35;12.10;;;;;;;6.99;100.00;100316.34;10496765;28;20127;-79
2023/12/21 02:03:49;;;;;;;20.10;11.88;;;;;;;6.98;100.00;100304.13;10496907;28;20537;-79
2023/12/21 02:08:49;;;;;;;17.92;11.98;;;;;;;7.00;100.00;100291.22;10504592;28;20547;-80
2023/12/21 02:13:50;;;;;;;21.42;11.65;;;;;;;6.99;100.00;100287.72;10509103;28;20220;-80
2023/12/21 02:18:50;;;;;;;20.80;12.77;;;;;;;6.99;100.00;100294.63;10503935;28;20584;-80
2023/12/21 02:23:52;;;;;;;16.63;10.00;;;;;;;7.02;100.00;100298.28;10446055;28;20144;-80
2023/12/21 02:28:53;;;;;;;19.98;11.07;;;;;;;7.00;100.00;100307.72;10481006;28;20115;-79
2023/12/21 02:33:53;;;;;;;26.77;14.55;;;;;;;7.02;100.00;100285.28;10486828;28;20472;-80
2023/12/21 02:38:54;;;;;;;16.42;11.63;;;;;;;7.00;100.00;100284.31;10474012;28;20092;-81
2023/12/21 02:43:55;;;;;;;20.42;11.27;;;;;;;7.00;100.00;100255.69;10500313;28;20717;-79
2023/12/21 02:48:55;;;;;;;23.50;11.68;;;;;;;7.01;100.00;100249.66;10491891;28;20122;-79
2023/12/21 02:53:56;;;;;;;21.17;10.43;;;;;;;7.01;100.00;100233.16;10484515;28;20403;-79
2023/12/21 02:58:56;;;;;;;19.75;12.13;;;;;;;6.99;100.00;100220.06;10486242;28;20116;-80
2023/12/21 03:03:59;;;;;;;14.43;9.93;;;;;;;7.01;100.00;100221.03;10490882;28;20125;-80
2023/12/21 03:09:00;;;;;;;21.98;10.80;;;;;;;7.03;100.00;100228.94;10497770;28;20151;-81
2023/12/21 03:14:00;;;;;;;19.92;11.15;;;;;;;7.02;100.00;100216.75;10506370;28;20047;-81
2023/12/21 03:19:01;;;;;;;14.50;9.77;;;;;;;7.03;100.00;100219.41;10486515;28;20036;-81
2023/12/21 03:24:01;;;;;;;19.05;10.55;;;;;;;7.04;100.00;100208.19;10487792;28;20024;-82
2023/12/21 03:29:02;;;;;;;21.13;11.38;;;;;;;7.01;100.00;100176.81;10498116;28;20055;-82
2023/12/21 03:34:02;;;;;;;19.20;11.02;;;;;;;7.02;100.00;100138.69;10506669;28;20064;-81
2023/12/21 03:39:03;;;;;;;17.73;9.90;;;;;;;7.05;100.00;100125.84;10498512;28;20060;-82
2023/12/21 03:44:03;;;;;;;18.98;9.48;;;;;;;7.05;100.00;100116.28;10473531;28;20089;-81
2023/12/21 03:49:05;;;;;;;15.95;10.75;;;;;;;7.03;100.00;100111.84;10509229;28;20052;-81
2023/12/21 03:54:05;;;;;;;15.65;9.60;;;;;;;7.05;100.00;100097.22;10505834;28;20438;-80
2023/12/21 03:59:06;;;;;;;13.70;8.82;;;;;;;7.03;100.00;100107.53;10480851;28;20123;-80
2023/12/21 04:04:06;;;;;;;17.25;8.70;;;;;;;7.07;100.00;100089.47;10505231;28;20043;-81
2023/12/21 04:09:07;;;;;;;19.77;10.55;;;;;;;7.07;100.00;100068.66;10502660;28;20115;-81
2023/12/21 04:14:07;;;;;;;18.17;9.65;;;;;;;7.09;100.00;100062.72;10505481;28;20120;-82
2023/12/21 04:19:08;;;;;;;24.33;10.38;;;;;;;7.10;100.00;100055.78;10502314;28;20057;-81
2023/12/21 04:24:08;;;;;;;18.95;10.40;;;;;;;7.09;100.00;100054.00;10502810;28;20177;-82
2023/12/21 04:29:09;;;;;;;17.85;10.20;;;;;;;7.11;100.00;100060.16;10502164;28;20127;-82
2023/12/21 04:34:10;;;;;;;17.65;9.88;;;;;;;7.09;100.00;100057.50;10469134;28;20184;-81
2023/12/21 04:39:10;;;;;;;20.83;11.30;;;;;;;7.14;100.00;100048.22;10485132;28;20495;-82
2023/12/21 04:44:11;;;;;;;17.52;10.18;;;;;;;7.13;100.00;100024.72;10501959;28;20064;-81
2023/12/21 04:49:11;;;;;;;27.02;11.95;;;;;;;7.16;100.00;100020.56;10502837;28;20114;-82
2023/12/21 04:54:12;;;;;;;20.27;11.43;;;;;;;7.16;100.00;99984.13;10500587;28;20044;-81
2023/12/21 04:59:12;;;;;;;25.33;13.27;;;;;;;7.15;100.00;99997.03;10468664;28;20218;-81
2023/12/21 05:04:13;;;;;;;25.45;11.35;;;;;;;7.17;100.00;99967.69;10503295;28;20124;-80
2023/12/21 05:09:13;;;;;;;23.98;12.00;;;;;;;7.17;100.00;99959.88;10499180;28;20412;-80
2023/12/21 05:14:14;;;;;;;25.10;10.98;;;;;;;7.20;100.00;99944.41;10471696;28;20205;-82
2023/12/21 05:19:14;;;;;;;22.92;11.98;;;;;;;7.22;100.00;99923.66;10492414;28;20047;-83
2023/12/21 05:24:15;;;;;;;22.52;11.02;;;;;;;7.23;100.00;99930.63;10485647;28;20564;-81
2023/12/21 05:29:15;;;;;;;34.10;12.05;;;;;;;7.26;100.00;99930.78;10474170;28;20097;-81
2023/12/21 05:34:16;;;;;;;29.33;11.13;;;;;;;7.27;100.00;99922.13;10495097;28;20041;-80
2023/12/21 05:39:17;;;;;;;18.38;9.88;;;;;;;7.27;100.00;99896.13;10481717;28;20064;-82
2023/12/21 05:44:17;;;;;;;23.33;11.23;;;;;;;7.28;100.00;99890.09;10507618;28;20036;-82
2023/12/21 05:49:17;;;;;;;25.33;11.70;;;;;;;7.28;100.00;99879.69;10510566;28;20071;-82
2023/12/21 05:54:18;;;;;;;16.58;10.75;;;;;;;7.31;100.00;99895.44;10498612;28;20403;-81
2023/12/21 05:59:19;;;;;;;27.50;11.15;;;;;;;7.34;100.00;99884.28;10514128;28;20123;-80
2023/12/21 06:04:19;;;;;;;32.50;12.68;;;;;;;7.33;100.00;99874.69;10490252;28;20090;-81
2023/12/21 06:09:20;;;;;;;24.67;11.05;;;;;;;7.33;100.00;99867.75;10510841;28;20147;-82
2023/12/21 06:14:21;;;;;;;26.27;12.57;;;;;;;7.37;100.00;99866.19;10491488;28;20395;-81
2023/12/21 06:19:21;;;;;;;26.67;11.38;;;;;;;7.42;100.00;99880.31;10498150;28;20045;-83
2023/12/21 06:24:21;;;;;;;23.85;11.52;;;;;;;7.47;100.00;99871.00;10501186;28;20576;-84
2023/12/21 06:29:22;;;;;;;19.63;11.15;;;;;;;7.51;100.00;99853.78;10507521;28;20165;-83
2023/12/21 06:34:25;;;;;;;28.75;10.80;;;;;;;7.47;100.00;99824.13;10501132;28;20136;-81
2023/12/21 06:39:26;;;;;;;29.58;11.52;;;;;;;7.44;100.00;99799.66;10490565;28;20043;-80
2023/12/21 06:44:26;;;;;;;17.33;9.43;;;;;;;7.47;100.00;99792.88;10473547;27;20043;-81
2023/12/21 06:49:27;;;;;;;26.33;11.50;;;;;;;7.51;100.00;99809.50;10488964;28;20167;-85
2023/12/21 06:54:28;;;;;;;26.60;10.37;;;;;;;7.54;100.00;99791.41;10497074;28;20097;-85
2023/12/21 06:59:30;;;;;;;28.55;11.48;;;;;;;7.52;100.00;99800.88;10503435;28;20512;-82
2023/12/21 07:04:30;;;;;;;21.13;10.90;;;;;;;7.51;100.00;99817.31;10479468;28;20062;-83
2023/12/21 07:09:31;;;;;;;20.35;9.93;;;;;;;7.53;100.00;99805.25;10493505;28;20131;-81
2023/12/21 07:14:31;;;;;;;21.67;9.82;;;;;;;7.53;100.00;99788.75;10508413;28;20036;-83
2023/12/21 07:19:33;;;;;;;21.98;9.68;;;;;;;7.55;100.00;99761.06;10520781;27;20115;-81
2023/12/21 07:24:36;;;;;;;19.15;9.15;;;;;;;7.57;100.00;99741.19;10464208;28;20043;-79
2023/12/21 07:29:36;;;;;;;26.17;10.02;;;;;;;7.55;100.00;99720.28;10485740;28;20510;-80
2023/12/21 07:34:37;;;;;;;20.33;7.78;;;;;;;7.57;100.00;99728.19;10503373;28;20051;-80
2023/12/21 07:39:37;;;;;;;30.77;9.90;;;;;;;7.56;100.00;99726.41;10490964;28;20040;-82
2023/12/21 07:44:38;;;;;;;22.00;9.02;;;;;;;7.60;100.00;99697.94;10486556;28;20067;-82
2023/12/21 07:49:38;;;;;;;18.08;9.07;;;;;;;7.60;100.00;99702.25;10516933;28;20044;-82
2023/12/21 07:54:39;;;;;;;22.02;6.25;;;;;;;7.61;100.00;99678.00;10466827;28;20364;-83
2023/12/21 07:59:40;;;;;;;11.98;5.22;;;;;;;7.67;100.00;99677.34;10477688;28;20127;-80
2023/12/21 08:04:41;;;;;;;20.05;4.63;;;;;;;7.68;100.00;99659.19;10485594;28;20053;-81
2023/12/21 08:09:41;;;;;;;11.18;3.83;;;;;;;7.71;100.00;99648.00;10485585;28;20123;-82
2023/12/21 08:14:42;;;;;;;8.85;3.05;;;;;;;7.71;100.00;99659.31;10489476;28;20040;-80
2023/12/21 08:19:44;;;;;;;9.15;2.65;;;;;;;7.72;100.00;99657.59;10475061;28;20048;-79
2023/12/21 08:24:45;;;;;;;16.85;4.72;;;;;;;7.76;100.00;99641.25;10439903;28;20157;-80
2023/12/21 08:29:45;;;;;;;8.27;3.40;;;;;;;7.73;100.00;99644.63;10487615;28;20036;-79
2023/12/21 08:34:46;;;;;;;11.98;4.72;;;;;;;7.76;100.00;99620.41;10473783;28;20060;-78
2023/12/21 08:39:46;;;;;;;11.60;4.43;;;;;;;7.77;100.00;99622.19;10460499;28;20046;-77
2023/12/21 08:44:48;;;;;;;10.90;4.05;;;;;;;7.78;100.00;99618.75;10467585;28;20049;-78
2023/12/21 08:49:49;;;;;;;17.27;4.97;;;;;;;7.81;100.00;99602.38;10477547;28;20468;-79
2023/12/21 08:54:49;;;;;;;16.55;5.15;;;;;;;7.81;100.00;99591.94;10503244;28;20123;-78
2023/12/21 08:59:51;;;;;;;10.45;4.38;;;;;;;7.82;100.00;99592.00;10495781;28;20128;-79
2023/12/21 09:04:52;;;;;;;;;;;;;;;7.84;100.00;99582.53;10488150;28;20044;-81
2023/12/21 09:09:52;;;;;;;18.02;4.40;;;;;;;7.85;100.00;99578.22;10486386;28;19924;-78
2023/12/21 09:14:53;;;;;;;17.23;5.38;;;;;;;7.89;100.00;99585.31;10494525;28;20127;-79
2023/12/21 09:19:53;;;;;;;7.28;4.07;;;;;;;7.94;100.00;99575.97;10506475;28;20127;-79
2023/12/21 09:24:54;;;;;;;10.27;4.30;;;;;;;7.96;100.00;99565.56;10515931;28;20165;-80
2023/12/21 09:29:54;;;;;;;5.88;3.25;;;;;;;7.97;100.00;99575.16;10509275;28;20115;-78
2023/12/21 09:34:55;;;;;;;10.60;4.53;;;;;;;7.98;100.00;99575.25;10501751;28;20109;-80
2023/12/21 09:39:57;;;;;;;8.70;4.38;;;;;;;8.01;100.00;99562.31;10507001;28;20041;-80
2023/12/21 09:44:59;;;;;;;3.95;3.05;;;;;;;8.03;100.00;99560.66;10478933;28;20036;-79
2023/12/21 09:49:59;;;;;;;;;;;;;;;8.07;100.00;99559.94;10485409;28;20036;-79
2023/12/21 09:55:00;;;;;;;10.40;4.90;;;;;;;8.10;100.00;99560.91;10488876;28;19921;-79
2023/12/21 10:00:01;;;;;;;8.60;4.68;;;;;;;8.16;100.00;99543.75;10475041;28;20041;-78
2023/12/21 10:05:03;;;;;;;7.93;5.13;;;;;;;8.17;100.00;99542.91;10496949;28;20893;-81
2023/12/21 10:10:04;;;;;;;11.95;5.93;;;;;;;8.21;100.00;99543.94;10489781;28;20040;-82
2023/12/21 10:15:06;;;;;;;10.97;6.07;;;;;;;8.20;100.00;99501.31;10481344;28;20041;-82
2023/12/21 10:20:11;;;;;;;11.02;4.95;;;;;;;8.22;100.00;99524.84;10462074;28;20040;-82
2023/12/21 10:25:12;;;;;;;4.45;2.67;;;;;;;8.26;100.00;99494.56;10449980;28;20041;-81
2023/12/21 10:30:15;;;;;;;12.73;5.97;;;;;;;8.32;100.00;99494.75;10467784;28;20439;-84
2023/12/21 10:35:15;;;;;;;9.20;5.50;;;;;;;8.34;100.00;99499.22;10491962;28;20449;-83
2023/12/21 10:40:16;;;;;;;10.60;6.13;;;;;;;8.39;100.00;99478.50;10503244;27;20045;-82
2023/12/21 10:45:17;;;;;;;9.35;5.78;;;;;;;8.48;100.00;99465.78;10423166;28;20091;-83
2023/12/21 10:50:17;;;;;;;7.60;5.57;;;;;;;8.57;100.00;99469.56;10488926;28;20550;-81
2023/12/21 10:55:18;;;;;;;6.53;3.35;;;;;;;8.60;100.00;99467.94;10500347;28;20078;-80
2023/12/21 11:00:18;;;;;;;7.10;4.03;;;;;;;8.68;100.00;99469.94;10500499;28;20045;-81
2023/12/21 11:05:26;;;;;;;7.25;4.68;;;;;;;8.79;100.00;99450.28;10499316;28;20478;-81
2023/12/21 11:10:27;;;;;;;10.13;4.97;;;;;;;8.91;100.00;99457.59;10484434;28;20411;-81
2023/12/21 11:15:27;;;;;;;7.57;4.43;;;;;;;9.01;100.00;99453.59;10495003;28;20040;-81
2023/12/21 11:20:34;;;;;;;8.32;3.83;;;;;;;9.11;100.00;99438.25;10496434;28;20086;-81
2023/12/21 11:25:34;;;;;;;5.30;3.05;;;;;;;9.19;100.00;99429.75;10488725;28;20392;-81
2023/12/21 11:30:35;;;;;;;6.07;2.92;;;;;;;9.27;100.00;99420.44;10500811;28;20075;-85
2023/12/21 11:35:36;;;;;;;4.95;3.20;;;;;;;9.39;100.00;99383.34;10476815;28;20059;-84
2023/12/21 11:40:36;;;;;;;3.05;1.52;;;;;;;9.70;100.00;99385.09;10485286;28;20040;-80
2023/12/21 11:45:38;;;;;;;2.05;1.15;;;;;;;10.04;100.00;99365.91;10480581;28;20523;-80
2023/12/21 11:50:39;;;;;;;1.92;0.93;;;;;;;9.92;100.00;99353.44;10492633;28;20040;-81
2023/12/21 11:55:42;;;;;;;5.40;2.40;;;;;;;9.85;100.00;99323.63;10479084;28;20127;-79
2023/12/21 12:00:43;;;;;;;3.35;1.98;;;;;;;9.89;100.00;99299.34;10498534;28;20066;-82
2023/12/21 12:05:48;;;;;;;4.43;2.53;;;;;;;9.69;100.00;99323.22;10484020;28;20120;-78
2023/12/21 12:10:52;;;;;;;3.15;1.10;;;;;;;9.61;100.00;99308.22;10496136;28;20480;-79
2023/12/21 12:15:53;;;;;;;2.20;0.98;;;;;;;9.66;100.00;99302.25;10484176;28;20047;-80
2023/12/21 12:21:00;;;;;;;2.00;0.77;;;;;;;9.67;100.00;99308.38;10500518;28;20143;-80
2023/12/21 12:26:02;;;;;;;2.10;1.35;;;;;;;9.81;100.00;99285.19;10494231;28;20047;-79
2023/12/21 12:31:02;;;;;;;1.08;0.90;;;;;;;10.03;100.00;99278.78;10461185;28;20485;-80
2023/12/21 12:36:04;;;;;;;1.90;1.15;;;;;;;10.14;100.00;99251.19;10457579;28;20041;-79
2023/12/21 12:41:06;;;;;;;1.80;1.10;;;;;;;10.11;100.00;99231.91;10459676;28;20488;-82
2023/12/21 12:46:06;;;;;;;5.05;2.75;;;;;;;9.73;100.00;99251.06;10478252;28;20041;-81
2023/12/21 12:51:11;;;;;;;1.73;1.08;;;;;;;9.42;100.00;99257.22;10475206;28;20495;-80
2023/12/21 12:56:12;;;;;;;3.17;1.98;;;;;;;9.23;100.00;99264.53;10414833;28;20037;-82
2023/12/21 13:01:12;;;;;;;4.88;2.00;;;;;;;9.13;100.00;99296.44;10436281;28;20040;-84
2023/12/21 13:06:13;;;;;;;2.08;1.23;;;;;;;9.11;100.00;99312.97;10450365;28;20105;-84
2023/12/21 13:11:15;;;;;;;3.22;1.35;;;;;;;9.08;100.00;99299.81;10453810;28;20065;-82
2023/12/21 13:16:18;;;;;;;8.18;2.38;;;;;;;9.10;100.00;99303.34;10450626;28;20124;-85
2023/12/21 13:21:18;;;;;;;5.40;1.70;;;;;;;9.17;100.00;99319.19;10439042;28;20033;-83
2023/12/21 13:26:19;;;;;;;2.20;1.13;;;;;;;9.37;100.00;99306.72;10445319;28;20041;-83
2023/12/21 13:31:22;;;;;;;2.53;1.45;;;;;;;9.45;100.00;99299.06;10415912;28;20057;-80
2023/12/21 13:36:23;;;;;;;3.83;1.15;;;;;;;9.51;100.00;99278.34;10441136;28;20507;-80
2023/12/21 13:41:23;;;;;;;5.47;2.00;;;;;;;9.33;100.00;99302.25;10444560;28;20124;-79
2023/12/21 13:46:24;;;;;;;2.50;1.35;;;;;;;9.16;100.00;99260.00;10438703;28;20479;-80
2023/12/21 13:51:25;;;;;;;3.72;2.03;;;;;;;9.01;100.00;99261.34;10428530;28;20128;-79
2023/12/21 13:56:25;;;;;;;3.85;1.88;;;;;;;8.89;100.00;99313.16;10440480;28;20480;-78
2023/12/21 14:01:26;;;;;;;6.65;1.63;;;;;;;8.85;100.00;99311.31;10440345;28;20094;-81
2023/12/21 14:06:26;;;;;;;3.83;1.70;;;;;;;8.85;100.00;99322.66;10460482;28;20055;-79
2023/12/21 14:11:27;;;;;;;4.80;1.65;;;;;;;8.74;100.00;99334.47;10501907;28;20072;-79
2023/12/21 14:16:28;;;;;;;2.72;1.70;;;;;;;8.57;100.00;99327.03;10511172;28;20551;-79
2023/12/21 14:21:28;;;;;;;8.27;6.03;;;;;;;8.69;100.00;99323.03;10496952;28;20115;-80
2023/12/21 14:26:29;;;;;;;9.23;2.60;;;;;;;8.82;100.00;99312.13;10509458;28;20487;-81
2023/12/21 14:31:29;;;;;;;5.20;1.73;;;;;;;8.97;100.00;99319.50;10492668;28;20178;-81
2023/12/21 14:36:30;;;;;;;5.80;1.95;;;;;;;9.08;100.00;99288.50;10516534;28;20131;-82
2023/12/21 14:41:30;;;;;;;2.95;1.42;;;;;;;9.13;100.00;99266.03;10487705;28;20123;-81
2023/12/21 14:46:31;;;;;;;4.00;1.77;;;;;;;9.08;100.00;99267.63;10513025;28;20075;-81
2023/12/21 14:51:31;;;;;;;5.82;1.48;;;;;;;9.07;100.00;99277.16;10492791;28;20131;-82
2023/12/21 14:56:32;;;;;;;6.13;2.17;;;;;;;9.07;100.00;99264.13;10484517;28;20119;-82
2023/12/21 15:01:32;;;;;;;4.32;2.22;;;;;;;9.05;100.00;99265.81;10503316;28;20072;-82
2023/12/21 15:06:33;;;;;;;2.30;0.80;;;;;;;9.07;100.00;99290.22;10510632;28;20127;-82
2023/12/21 15:11:33;;;;;;;5.93;2.55;;;;;;;9.03;100.00;99287.50;10508566;28;20123;-81
2023/12/21 15:16:34;;;;;;;5.88;1.42;;;;;;;8.99;100.00;99281.28;10481164;28;20050;-82
2023/12/21 15:21:34;;;;;;;5.03;2.50;;;;;;;9.06;100.00;99280.63;10482706;28;20123;-82
2023/12/21 15:26:35;;;;;;;10.75;4.78;;;;;;;8.97;100.00;99267.31;10470967;28;20066;-81
2023/12/21 15:31:36;;;;;;;2.70;1.80;;;;;;;8.95;100.00;99282.03;10506896;28;20483;-82
2023/12/21 15:36:39;;;;;;;9.52;5.68;;;;;;;8.77;100.00;99309.34;10482940;28;20132;-80
2023/12/21 15:41:40;;;;;;;5.72;1.83;;;;;;;8.64;100.00;99322.88;10498757;28;20408;-81
2023/12/21 15:46:41;;;;;;;10.60;3.05;;;;;;;8.67;100.00;99312.53;10508529;28;20060;-81
2023/12/21 15:51:41;;;;;;;9.93;2.83;;;;;;;8.73;100.00;99312.72;10507200;28;20118;-80
2023/12/21 15:56:42;;;;;;;6.97;2.08;;;;;;;8.74;100.00;99313.63;10497889;28;20135;-80
2023/12/21 16:01:43;;;;;;;10.48;3.13;;;;;;;8.73;100.00;99285.75;10497992;28;20488;-79
2023/12/21 16:06:43;;;;;;;14.05;2.10;;;;;;;8.64;100.00;99300.28;10509103;28;20032;-80
2023/12/21 16:11:44;;;;;;;6.97;2.13;;;;;;;8.71;100.00;99322.22;10503811;28;20115;-81
2023/12/21 16:16:44;;;;;;;5.55;2.10;;;;;;;8.64;100.00;99313.34;10480839;28;20439;-80
2023/12/21 16:21:45;;;;;;;9.43;3.75;;;;;;;8.56;100.00;99345.22;10483436;28;20048;-83
2023/12/21 16:26:46;;;;;;;13.27;2.72;;;;;;;8.40;100.00;99338.63;10499737;28;20555;-79
2023/12/21 16:31:46;;;;;;;7.03;2.65;;;;;;;7.90;100.00;99358.72;10488030;28;20119;-81
2023/12/21 16:36:47;;;;;;;5.50;2.75;;;;;;;7.75;100.00;99381.63;10479259;28;20511;-79
2023/12/21 16:41:47;;;;;;;6.93;2.00;;;;;;;7.72;100.00;99434.50;10512931;28;20085;-79
2023/12/21 16:46:48;;;;;;;16.58;3.95;;;;;;;7.62;100.00;99414.16;10495576;28;20115;-78
2023/12/21 16:51:49;;;;;;;12.00;3.97;;;;;;;7.59;100.00;99446.19;10489357;28;20416;-80
2023/12/21 16:56:49;;;;;;;8.77;2.95;;;;;;;7.51;100.00;99436.31;10502043;28;20487;-79
2023/12/21 17:01:50;;;;;;;17.20;5.35;;;;;;;7.44;100.00;99423.09;10504611;28;20053;-79
2023/12/21 17:06:50;;;;;;;9.88;3.75;;;;;;;7.53;100.00;99414.72;10488599;28;20029;-79
2023/12/21 17:11:51;;;;;;;7.72;3.65;;;;;;;7.60;100.00;99408.03;10502722;28;20036;-80
2023/12/21 17:16:51;;;;;;;10.90;4.40;;;;;;;7.72;100.00;99416.28;10468685;28;20115;-80
2023/12/21 17:21:52;;;;;;;11.32;2.70;;;;;;;7.09;100.00;99378.41;10497094;28;20047;-81
2023/12/21 17:26:52;;;;;;;7.22;2.85;;;;;;;6.72;100.00;99385.66;10491402;28;20085;-80
2023/12/21 17:31:53;;;;;;;13.02;4.28;;;;;;;6.66;100.00;99414.03;10489962;28;20543;-81
2023/12/21 17:36:53;;;;;;;19.55;5.20;;;;;;;6.71;100.00;99401.22;10512477;28;20132;-79
2023/12/21 17:41:54;;;;;;;13.50;4.45;;;;;;;6.90;100.00;99465.25;10510843;28;20123;-81
2023/12/21 17:46:55;;;;;;;11.55;3.70;;;;;;;7.12;100.00;99440.97;10502083;28;20045;-79
2023/12/21 17:51:55;;;;;;;18.27;3.67;;;;;;;7.12;100.00;99467.00;10506089;28;20141;-83
2023/12/21 17:56:56;;;;;;;11.82;4.70;;;;;;;7.25;100.00;99446.66;10504077;28;20135;-84
2023/12/21 18:01:56;;;;;;;15.02;2.97;;;;;;;7.29;100.00;99453.75;10507148;28;20060;-79
2023/12/21 18:06:57;;;;;;;10.05;4.63;;;;;;;7.34;100.00;99445.25;10510672;28;20568;-80
2023/12/21 18:11:58;;;;;;;9.75;3.50;;;;;;;7.43;100.00;99428.22;10482736;28;20040;-83
2023/12/21 18:16:59;;;;;;;7.00;2.50;;;;;;;7.52;100.00;99454.59;10507461;28;20043;-81
2023/12/21 18:21:59;;;;;;;10.45;3.65;;;;;;;7.41;100.00;99477.63;10481409;28;20063;-81
2023/12/21 18:27:00;;;;;;;8.32;3.25;;;;;;;7.33;100.00;99461.72;10494563;28;20046;-81
2023/12/21 18:32:02;;;;;;;5.50;2.67;;;;;;;7.27;100.00;99521.34;10505573;28;20062;-81
2023/12/21 18:37:03;;;;;;;;;;;;;;;7.46;100.00;99545.47;10501684;28;20037;-81
2023/12/21 18:42:03;;;;;;;8.32;3.55;;;;;;;6.58;100.00;99554.13;10505556;28;20287;-81
2023/12/21 18:47:04;;;;;;;7.28;2.63;;;;;;;5.87;100.00;99549.25;10486719;28;20775;-79
2023/12/21 18:52:05;;;;;;;8.10;2.42;;;;;;;5.56;100.00;99573.81;10505408;27;20140;-78
2023/12/21 18:57:06;;;;;;;13.50;3.47;;;;;;;5.49;100.00;99576.06;10496316;28;20095;-78
2023/12/21 19:02:07;;;;;;;6.03;2.97;;;;;;;5.44;100.00;99586.19;10494140;28;20116;-80
2023/12/21 19:07:07;;;;;;;15.75;3.70;;;;;;;5.25;100.00;99631.13;10502686;28;20048;-78
2023/12/21 19:12:08;;;;;;;15.38;3.60;;;;;;;4.96;100.00;99675.53;10501850;28;20518;-79
2023/12/21 19:17:10;;;;;;;;;;;;;;;4.72;100.00;99684.66;10501508;28;20110;-78
2023/12/21 19:22:10;;;;;;;15.82;4.65;;;;;;;4.59;100.00;99678.81;10504650;28;20070;-80
2023/12/21 19:27:11;;;;;;;9.30;4.00;;;;;;;4.53;100.00;99725.13;10501448;28;20120;-79
2023/12/21 19:32:11;;;;;;;10.93;3.67;;;;;;;4.53;100.00;99728.63;10507406;28;20559;-81
2023/12/21 19:37:15;;;;;;;9.70;5.20;;;;;;;4.55;100.00;99734.78;10491318;28;20040;-80
2023/12/21 19:42:15;;;;;;;14.93;6.05;;;;;;;4.61;100.00;99713.47;10499878;28;20043;-79
2023/12/21 19:47:16;;;;;;;9.65;3.92;;;;;;;4.59;100.00;99737.56;10503046;28;20127;-80
2023/12/21 19:52:16;;;;;;;14.43;4.88;;;;;;;4.60;100.00;99755.75;10504818;28;20123;-82
2023/12/21 19:57:17;;;;;;;8.70;3.72;;;;;;;4.54;100.00;99755.44;10488764;28;20568;-82
2023/12/21 20:02:17;;;;;;;14.35;4.88;;;;;;;4.46;100.00;99780.94;10478358;28;20123;-82
2023/12/21 20:07:18;;;;;;;16.75;5.88;;;;;;;4.40;100.00;99778.00;10461600;28;20037;-80
2023/12/21 20:12:21;;;;;;;13.68;4.70;;;;;;;4.48;100.00;99814.69;10464878;28;20040;-82
2023/12/21 20:17:22;;;;;;;16.67;4.85;;;;;;;4.39;100.00;99800.41;10486686;28;20040;-79
2023/12/21 20:22:22;;;;;;;11.13;3.67;;;;;;;4.32;100.00;99821.63;10483465;28;20063;-79
2023/12/21 20:27:23;;;;;;;9.20;3.60;;;;;;;4.23;100.00;99813.31;10465443;28;20055;-81
2023/12/21 20:32:23;;;;;;;16.58;3.90;;;;;;;4.22;100.00;99809.88;10498382;27;20083;-79
2023/12/21 20:37:24;;;;;;;6.13;3.10;;;;;;;4.19;100.00;99819.13;10492255;28;20036;-79
2023/12/21 20:42:25;;;;;;;8.97;3.50;;;;;;;4.14;100.00;99831.84;10507415;28;20048;-81
2023/12/21 20:47:26;;;;;;;7.50;1.70;;;;;;;4.10;100.00;99833.34;10487047;28;20212;-80
2023/12/21 20:52:27;;;;;;;13.77;2.63;;;;;;;4.09;100.00;99813.44;10474654;28;20051;-79
2023/12/21 20:57:27;;;;;;;4.80;2.03;;;;;;;4.05;100.00;99833.91;10472306;28;20503;-81
2023/12/21 21:02:28;;;;;;;7.97;2.90;;;;;;;4.10;100.00;99810.03;10438241;28;20124;-81
2023/12/21 21:07:28;;;;;;;23.00;3.95;;;;;;;4.10;100.00;99840.25;10448023;28;20580;-82
2023/12/21 21:12:29;;;;;;;8.00;3.53;;;;;;;4.06;100.00;99841.75;10449921;28;20039;-81
2023/12/21 21:17:29;;;;;;;6.97;2.65;;;;;;;4.05;100.00;99832.19;10446744;28;20572;-81
2023/12/21 21:22:30;;;;;;;7.82;3.58;;;;;;;3.87;100.00;99852.75;10433850;28;20139;-81
2023/12/21 21:27:33;;;;;;;9.80;3.28;;;;;;;3.68;100.00;99858.53;10447631;28;20128;-80
2023/12/21 21:32:34;;;;;;;12.00;4.97;;;;;;;3.63;100.00;99849.59;10451466;28;20128;-79
2023/12/21 21:37:34;;;;;;;13.20;3.03;;;;;;;3.65;100.00;99854.09;10444904;28;20052;-79
2023/12/21 21:42:35;;;;;;;9.05;3.58;;;;;;;3.66;100.00;99876.56;10447469;28;20179;-79
2023/12/21 21:47:35;;;;;;;23.73;5.93;;;;;;;3.80;100.00;99894.63;10447741;28;20540;-77
2023/12/21 21:52:36;;;;;;;12.40;4.50;;;;;;;3.81;100.00;99879.16;10432466;28;20036;-80
2023/12/21 21:57:37;;;;;;;8.65;3.63;;;;;;;3.73;100.00;99874.34;10482631;28;20044;-80
2023/12/21 22:02:37;;;;;;;16.08;3.92;;;;;;;3.72;100.00;99886.38;10495642;28;20044;-80
2023/12/21 22:07:39;;;;;;;14.98;5.47;;;;;;;3.84;100.00;99870.69;10491598;28;20043;-80
2023/12/21 22:12:39;;;;;;;9.80;3.92;;;;;;;3.95;100.00;99889.44;10478710;28;20052;-82
2023/12/21 22:17:40;;;;;;;14.68;4.10;;;;;;;4.01;100.00;99907.03;10483924;28;20579;-85
2023/12/21 22:22:41;;;;;;;15.95;5.18;;;;;;;3.86;100.00;99900.16;10486819;28;20218;-82
2023/12/21 22:27:41;;;;;;;18.88;4.25;;;;;;;3.84;100.00;99856.84;10489950;28;20045;-83
2023/12/21 22:32:42;;;;;;;10.10;4.32;;;;;;;3.79;100.00;99898.88;10512999;28;20119;-82
2023/12/21 22:37:42;;;;;;;9.88;3.35;;;;;;;3.72;100.00;99881.22;10508544;28;20124;-81
2023/12/21 22:42:43;;;;;;;13.00;4.57;;;;;;;3.75;100.00;99875.34;10476716;28;20071;-81
2023/12/21 22:47:43;;;;;;;17.08;5.85;;;;;;;3.64;100.00;99879.84;10497097;28;20052;-80
2023/12/21 22:52:44;;;;;;;17.50;5.15;;;;;;;3.58;100.00;99866.56;10502366;28;20063;-79
2023/12/21 22:57:44;;;;;;;11.60;6.55;;;;;;;3.55;100.00;99861.19;10512916;28;20114;-78
2023/12/21 23:02:46;;;;;;;20.17;6.45;;;;;;;3.94;100.00;99867.84;10468892;28;20048;-80